Weather reports worldwide

Advertisment
Crotone, Italy (16350): temperature & dewpoint: 16.01.2019 04:00:00 - 22.01.2019 04:00:00 (CET)Crotone, Italy (16350): wind speed: 16.01.2019 04:00:00 - 22.01.2019 04:00:00 (CET)Crotone, Italy (16350): wind direction: 16.01.2019 04:00:00 - 22.01.2019 04:00:00 (CET)Crotone, Italy (16350): visibility: 16.01.2019 04:00:00 - 22.01.2019 04:00:00 (CET)
Date & Time tt [°C] td [°C] ff [km/h] ff [kn] dd vv [km]
22.01.2019 04:00:00 - - - - - -
22.01.2019 03:00:00 - - - - - -
22.01.2019 02:00:00 - - - - - -
22.01.2019 01:00:00 - - - - - -
22.01.2019 00:00:00 - - - - - -
21.01.2019 23:00:00 - - - - - -
21.01.2019 22:00:00 - - - - - -
21.01.2019 21:00:00 - - - - - -
21.01.2019 20:00:00 9,0 9,0 11 6 S 10
21.01.2019 19:00:00 11,0 9,0 22 12 S 10
21.01.2019 18:00:00 11,0 8,0 13 7 S 10
21.01.2019 17:00:00 12,0 9,0 15 8 S 10
21.01.2019 16:00:00 12,0 9,0 13 7 SSE 10
21.01.2019 15:00:00 13,0 9,0 16 9 S 10
21.01.2019 14:00:00 13,0 9,0 16 9 S 10
21.01.2019 13:00:00 13,0 9,0 13 7 S 10
21.01.2019 12:00:00 12,0 9,0 11 6 S 10
21.01.2019 11:00:00 12,0 9,0 9 5 S 10
21.01.2019 10:00:00 12,0 11,0 8 4 SE 10
21.01.2019 09:00:00 10,0 9,0 4 2 ESE 10
21.01.2019 08:00:00 7,0 7,0 0 0 N 10
21.01.2019 07:00:00 - - - - - -
21.01.2019 06:00:00 - - - - - -
21.01.2019 05:00:00 - - - - - -
21.01.2019 04:00:00 - - - - - -
21.01.2019 03:00:00 - - - - - -
21.01.2019 02:00:00 - - - - - -
21.01.2019 01:00:00 - - - - - -
21.01.2019 00:00:00 - - - - - -
20.01.2019 23:00:00 - - - - - -
20.01.2019 22:00:00 - - - - - -
20.01.2019 21:00:00 - - - - - -
20.01.2019 20:00:00 8,0 7,0 4 2 S 10
20.01.2019 19:00:00 8,0 7,0 4 2 SSE 10
20.01.2019 18:00:00 9,0 7,0 11 6 SE 10
20.01.2019 17:00:00 11,0 8,0 9 5 SE 10
20.01.2019 16:00:00 12,0 8,0 11 6 SE 10
20.01.2019 15:00:00 13,0 9,0 9 5 ESE 10
20.01.2019 14:00:00 13,0 8,0 9 5 SSE 10
20.01.2019 13:00:00 14,0 8,0 11 6 SSW 10
20.01.2019 12:00:00 13,0 9,0 8 4 SSE 10
20.01.2019 11:00:00 13,0 9,0 5 3 NE 10
20.01.2019 10:00:00 12,0 9,0 5 3 NNE 10
20.01.2019 09:00:00 10,0 8,0 5 3 NNE 10
20.01.2019 08:00:00 7,0 6,0 4 2 N 10
20.01.2019 07:00:00 - - - - - -
20.01.2019 06:00:00 - - - - - -
20.01.2019 05:00:00 - - - - - -
20.01.2019 04:00:00 - - - - - -
20.01.2019 03:00:00 - - - - - -
20.01.2019 02:00:00 - - - - - -
20.01.2019 01:00:00 - - - - - -
20.01.2019 00:00:00 - - - - - -
19.01.2019 23:00:00 - - - - - -
19.01.2019 22:00:00 - - - - - -
19.01.2019 21:00:00 - - - - - -
19.01.2019 20:00:00 - - - - - -
19.01.2019 19:00:00 9,0 8,0 8 4 WSW 10
19.01.2019 18:00:00 10,0 8,0 5 3 SSE 10
19.01.2019 17:00:00 10,0 8,0 8 4 S 10
19.01.2019 16:00:00 11,0 8,0 5 3 S 10
19.01.2019 15:00:00 13,0 9,0 9 5 SSE 10
19.01.2019 14:00:00 14,0 10,0 9 5 SSE 10
19.01.2019 13:00:00 13,0 9,0 4 2 - 10
19.01.2019 12:00:00 13,0 9,0 5 3 ESE 10
19.01.2019 11:00:00 11,0 8,0 5 3 NNE 10
19.01.2019 10:00:00 11,0 8,0 4 2 - 10
19.01.2019 09:00:00 10,0 7,0 5 3 E 10
19.01.2019 08:00:00 7,0 6,0 5 3 ESE 10
19.01.2019 07:00:00 8,0 6,0 2 1 - 10
19.01.2019 06:00:00 - - - - - -
19.01.2019 05:00:00 - - - - - -
19.01.2019 04:00:00 - - - - - -
19.01.2019 03:00:00 - - - - - -
19.01.2019 02:00:00 - - - - - -
19.01.2019 01:00:00 - - - - - -
19.01.2019 00:00:00 - - - - - -
18.01.2019 23:00:00 - - - - - -
18.01.2019 22:00:00 - - - - - -
18.01.2019 21:00:00 - - - - - -
18.01.2019 20:00:00 9,0 8,0 11 6 SSW 10
18.01.2019 19:00:00 10,0 9,0 15 8 SSW 10
18.01.2019 18:00:00 11,0 10,0 15 8 SSW 10
18.01.2019 17:00:00 13,0 11,0 22 12 S 10
18.01.2019 16:00:00 13,0 10,0 22 12 SSW 10
18.01.2019 15:00:00 14,0 11,0 26 14 S 10
18.01.2019 14:00:00 14,0 11,0 28 15 S 10
18.01.2019 13:00:00 14,0 8,0 24 13 SSW 10
18.01.2019 12:00:00 14,0 7,0 22 12 SSW 10
18.01.2019 11:00:00 14,0 8,0 18 10 SSW 10
18.01.2019 10:00:00 13,0 9,0 16 9 SSW 10
18.01.2019 09:00:00 10,0 9,0 13 7 SSW 10
18.01.2019 08:00:00 9,0 7,0 9 5 SSW 10
18.01.2019 07:00:00 - - - - - -
18.01.2019 06:00:00 - - - - - -
18.01.2019 05:00:00 - - - - - -
18.01.2019 04:00:00 - - - - - -
18.01.2019 03:00:00 - - - - - -
18.01.2019 02:00:00 - - - - - -
18.01.2019 01:00:00 - - - - - -
18.01.2019 00:00:00 - - - - - -
17.01.2019 23:00:00 - - - - - -
17.01.2019 22:00:00 - - - - - -
17.01.2019 21:00:00 - - - - - -
17.01.2019 20:00:00 9,0 8,0 11 6 SSW 10
17.01.2019 19:00:00 11,0 9,0 13 7 SSW 10
17.01.2019 18:00:00 11,0 9,0 13 7 SSW 10
17.01.2019 17:00:00 11,0 8,0 9 5 SW 10
17.01.2019 16:00:00 12,0 8,0 15 8 SSW 10
17.01.2019 15:00:00 13,0 3,0 16 9 SSW 10
17.01.2019 14:00:00 13,0 4,0 21 11 S 10
17.01.2019 13:00:00 13,0 4,0 16 9 SSW 10
17.01.2019 12:00:00 12,0 2,0 15 8 SW 10
17.01.2019 11:00:00 12,0 5,0 4 2 - 10
17.01.2019 10:00:00 11,0 6,0 4 2 - 10
17.01.2019 09:00:00 8,0 5,0 5 3 NNW 10
17.01.2019 08:00:00 5,0 3,0 5 3 NW 10
17.01.2019 07:00:00 - - - - - -
17.01.2019 06:00:00 - - - - - -
17.01.2019 05:00:00 - - - - - -
17.01.2019 04:00:00 - - - - - -
17.01.2019 03:00:00 - - - - - -
17.01.2019 02:00:00 - - - - - -
17.01.2019 01:00:00 - - - - - -
17.01.2019 00:00:00 - - - - - -
16.01.2019 23:00:00 - - - - - -
16.01.2019 22:00:00 - - - - - -
16.01.2019 21:00:00 - - - - - -
16.01.2019 20:00:00 6,0 2,0 8 4 W 10
16.01.2019 19:00:00 7,0 2,0 9 5 SSW 10
16.01.2019 18:00:00 7,0 2,0 9 5 SSW 10
16.01.2019 17:00:00 9,0 2,0 15 8 SSW 10
16.01.2019 16:00:00 11,0 2,0 21 11 SSW 10
16.01.2019 15:00:00 12,0 2,0 21 11 SSW 10
16.01.2019 14:00:00 12,0 -2,0 16 9 S 10
16.01.2019 13:00:00 12,0 -2,0 9 5 SSW 10
16.01.2019 12:00:00 12,0 -2,0 2 1 - 10
16.01.2019 11:00:00 10,0 -2,0 4 2 - 10
16.01.2019 10:00:00 9,0 -3,0 9 5 SSE 10
16.01.2019 09:00:00 8,0 -3,0 5 3 S 10
16.01.2019 08:00:00 2,0 -3,0 5 3 S 10
16.01.2019 07:00:00 - - - - - -
16.01.2019 06:00:00 - - - - - -
16.01.2019 05:00:00 - - - - - -
16.01.2019 04:00:00 - - - - - -

tt = temperature
td = dewpoint
ff = wind speed
dd = wind direction
vv = visibility

Next stations